createdAt,value
2018-11-07T00:00:20.213Z,89.54
2018-11-07T00:00:46.343Z,89.25
2018-11-07T00:01:12.506Z,89.64
2018-11-07T00:01:38.639Z,89.83
2018-11-07T00:02:04.767Z,89.54
2018-11-07T00:02:30.936Z,89.83
2018-11-07T00:02:57.204Z,90.4
2018-11-07T00:03:23.186Z,90.31
2018-11-07T00:03:49.346Z,90.11
2018-11-07T00:04:15.482Z,89.83
2018-11-07T00:04:41.616Z,89.45
2018-11-07T00:05:07.792Z,89.54
2018-11-07T00:05:33.941Z,89.83
2018-11-07T00:06:00.145Z,89.64
2018-11-07T00:06:26.239Z,89.25
2018-11-07T00:06:52.444Z,89.45
2018-11-07T00:07:18.588Z,89.25
2018-11-07T00:07:44.752Z,89.25
2018-11-07T00:08:10.978Z,89.45
2018-11-07T00:08:37.082Z,89.35
2018-11-07T00:09:03.213Z,89.25
2018-11-07T00:09:29.342Z,89.35
2018-11-07T00:09:55.471Z,89.16
2018-11-07T00:10:21.629Z,88.97
2018-11-07T00:10:47.762Z,89.06
2018-11-07T00:11:13.899Z,88.68
2018-11-07T00:11:40.096Z,88.87
2018-11-07T00:12:06.242Z,88.59
2018-11-07T00:12:32.371Z,88.68
2018-11-07T00:12:58.530Z,88.68
2018-11-07T00:13:24.686Z,88.68
2018-11-07T00:13:50.829Z,88.68
2018-11-07T00:14:16.952Z,88.78
2018-11-07T00:14:43.086Z,89.16
2018-11-07T00:15:09.251Z,88.44
2018-11-07T00:15:35.382Z,88.92
2018-11-07T00:16:01.515Z,88.25
2018-11-07T00:16:27.698Z,88.25
2018-11-07T00:16:53.854Z,88.63
2018-11-07T00:17:19.991Z,88.82
2018-11-07T00:17:46.127Z,88.15
2018-11-07T00:18:12.263Z,87.96
2018-11-07T00:18:38.441Z,88.25
2018-11-07T00:19:04.575Z,88.06
2018-11-07T00:19:30.817Z,87.68
2018-11-07T00:19:56.906Z,87.77
2018-11-07T00:20:23.045Z,87.68
2018-11-07T00:20:49.173Z,87.29
2018-11-07T00:21:15.323Z,87.39
2018-11-07T00:21:41.507Z,87.29
2018-11-07T00:22:07.624Z,87.39
2018-11-07T00:22:33.766Z,87.39
2018-11-07T00:22:59.905Z,87.58
2018-11-07T00:23:26.037Z,87.68
2018-11-07T00:23:52.176Z,87.2
2018-11-07T00:24:18.340Z,87.01
2018-11-07T00:24:44.469Z,86.91
2018-11-07T00:25:10.608Z,87.01
2018-11-07T00:25:36.742Z,86.91
2018-11-07T00:26:02.894Z,86.91
2018-11-07T00:26:29.308Z,87.1
2018-11-07T00:26:55.298Z,87.1
2018-11-07T00:27:21.429Z,87.01
2018-11-07T00:27:47.561Z,87.2
2018-11-07T00:28:13.695Z,86.72
2018-11-07T00:28:39.828Z,87.01
2018-11-07T00:29:05.972Z,87.68
2018-11-07T00:29:32.106Z,87.58
2018-11-07T00:29:58.307Z,87.48
2018-11-07T00:30:24.395Z,87.1
2018-11-07T00:30:50.557Z,87.2
2018-11-07T00:31:16.693Z,87.01
2018-11-07T00:31:42.827Z,87.01
2018-11-07T00:32:08.959Z,87.1
2018-11-07T00:32:35.089Z,87.39
2018-11-07T00:33:01.255Z,87.01
2018-11-07T00:33:27.365Z,87.1
2018-11-07T00:33:53.512Z,87.2
2018-11-07T00:34:19.837Z,87.29
2018-11-07T00:34:46.004Z,87.58
2018-11-07T00:35:12.263Z,87.48
2018-11-07T00:35:38.302Z,87.77
2018-11-07T00:36:04.664Z,87.29
2018-11-07T00:36:30.950Z,87.68
2018-11-07T00:36:57.067Z,87.48
2018-11-07T00:37:23.225Z,87.68
2018-11-07T00:37:49.375Z,87.68
2018-11-07T00:38:15.521Z,87.1
2018-11-07T00:38:41.787Z,86.91
2018-11-07T00:39:07.992Z,87.39
2018-11-07T00:39:34.133Z,86.72
2018-11-07T00:40:00.268Z,87.2
2018-11-07T00:40:26.429Z,87.1
2018-11-07T00:40:52.606Z,87.2
2018-11-07T00:41:19.158Z,87.48
2018-11-07T00:41:45.282Z,87.87
2018-11-07T00:42:11.471Z,87.87
2018-11-07T00:42:37.616Z,87.68
2018-11-07T00:43:04.992Z,87.48
2018-11-07T00:43:31.128Z,87.58
2018-11-07T00:43:57.329Z,87.58
2018-11-07T00:44:23.485Z,87.48
2018-11-07T00:44:49.675Z,87.29
2018-11-07T00:45:16.006Z,87.29
2018-11-07T00:45:42.189Z,87.77
2018-11-07T00:46:08.280Z,87.82
2018-11-07T00:46:34.436Z,87.68
2018-11-07T00:47:00.941Z,87.77
2018-11-07T00:47:27.070Z,87.68
2018-11-07T00:47:53.246Z,87.68
2018-11-07T00:48:19.383Z,87.58
2018-11-07T00:48:45.602Z,87.39
2018-11-07T00:49:11.755Z,87.87
2018-11-07T00:49:37.887Z,87.2
2018-11-07T00:50:04.027Z,87.2
2018-11-07T00:50:30.158Z,87.87
2018-11-07T00:50:56.306Z,87.29
2018-11-07T00:51:22.440Z,87.29
2018-11-07T00:51:48.571Z,87.1
2018-11-07T00:52:14.757Z,87.48
2018-11-07T00:52:40.912Z,87.29
2018-11-07T00:53:07.077Z,87.48
2018-11-07T00:53:33.299Z,87.77
2018-11-07T00:53:59.441Z,87.2
2018-11-07T00:54:25.525Z,87.87
2018-11-07T00:54:51.686Z,87.58
2018-11-07T00:55:17.849Z,87.58
2018-11-07T00:55:43.976Z,87.77
2018-11-07T00:56:10.109Z,87.39
2018-11-07T00:56:36.246Z,87.87
2018-11-07T00:57:02.405Z,87.68
2018-11-07T00:57:28.537Z,87.58
2018-11-07T00:57:54.723Z,87.87
2018-11-07T00:58:20.801Z,87.2
2018-11-07T00:58:46.939Z,87.77
2018-11-07T00:59:13.070Z,87.58
2018-11-07T00:59:39.211Z,87.48
2018-11-07T01:00:05.393Z,87.2
2018-11-07T01:00:31.527Z,87.2
2018-11-07T01:00:57.656Z,87.48
2018-11-07T01:01:23.789Z,87.39
2018-11-07T01:01:49.944Z,87.35
2018-11-07T01:02:16.108Z,87.29
2018-11-07T01:02:42.236Z,87.29
2018-11-07T01:03:08.363Z,87.77
2018-11-07T01:03:34.498Z,87.77
2018-11-07T01:04:00.631Z,87.58
2018-11-07T01:04:26.782Z,87.68
2018-11-07T01:04:52.915Z,87.39
2018-11-07T01:05:19.050Z,87.68
2018-11-07T01:05:45.180Z,87.29
2018-11-07T01:06:11.313Z,87.29
2018-11-07T01:06:37.469Z,87.48
2018-11-07T01:07:03.601Z,87.68
2018-11-07T01:07:29.732Z,87.29
2018-11-07T01:07:55.870Z,87.2
2018-11-07T01:08:22.024Z,87.39
2018-11-07T01:08:48.152Z,87.1
2018-11-07T01:09:14.285Z,87.68
2018-11-07T01:09:40.633Z,87.2
2018-11-07T01:10:06.617Z,87.2
2018-11-07T01:10:32.751Z,87.1
2018-11-07T01:10:59.250Z,86.91
2018-11-07T01:11:25.397Z,86.82
2018-11-07T01:11:51.561Z,87.29
2018-11-07T01:12:17.706Z,87.2
2018-11-07T01:12:43.840Z,87.01
2018-11-07T01:13:09.970Z,86.63
2018-11-07T01:13:36.149Z,86.91
2018-11-07T01:14:02.282Z,87.1
2018-11-07T01:14:28.418Z,86.82
2018-11-07T01:14:54.549Z,86.43
2018-11-07T01:15:20.679Z,86.53
2018-11-07T01:15:46.842Z,86.72
2018-11-07T01:16:12.986Z,86.82
2018-11-07T01:16:39.245Z,87.2
2018-11-07T01:17:05.265Z,86.72
2018-11-07T01:17:31.401Z,87.01
2018-11-07T01:17:57.531Z,87.1
2018-11-07T01:18:23.669Z,86.72
2018-11-07T01:18:49.797Z,86.91
2018-11-07T01:19:15.940Z,86.82
2018-11-07T01:19:42.068Z,87.1
2018-11-07T01:20:08.201Z,86.91
2018-11-07T01:20:35.800Z,86.53
2018-11-07T01:21:01.936Z,86.82
2018-11-07T01:21:28.119Z,86.91
2018-11-07T01:21:54.263Z,86.91
2018-11-07T01:22:20.445Z,87.2
2018-11-07T01:22:46.585Z,87.1
2018-11-07T01:23:12.723Z,86.82
2018-11-07T01:23:38.882Z,87.68
2018-11-07T01:24:05.013Z,87.29
2018-11-07T01:24:31.148Z,87.2
2018-11-07T01:24:57.307Z,87.87
2018-11-07T01:25:23.460Z,87.58
2018-11-07T01:25:49.621Z,87.2
2018-11-07T01:26:15.771Z,87.48
2018-11-07T01:26:41.907Z,87.77
2018-11-07T01:27:08.038Z,87.68
2018-11-07T01:27:34.171Z,87.58
2018-11-07T01:28:00.346Z,87.29
2018-11-07T01:28:26.484Z,87.58
2018-11-07T01:28:52.617Z,87.68
2018-11-07T01:29:18.771Z,87.58
2018-11-07T01:29:44.906Z,87.68
2018-11-07T01:30:11.036Z,87.77
2018-11-07T01:30:37.168Z,87.29
2018-11-07T01:31:03.326Z,87.39
2018-11-07T01:31:29.468Z,87.77
2018-11-07T01:31:55.599Z,87.77
2018-11-07T01:32:21.760Z,87.87
2018-11-07T01:32:47.903Z,87.68
2018-11-07T01:33:14.037Z,87.68
2018-11-07T01:33:40.162Z,88.06
2018-11-07T01:34:06.296Z,88.06
2018-11-07T01:34:32.430Z,88.06
2018-11-07T01:34:58.563Z,88.25
2018-11-07T01:35:24.693Z,88.15
2018-11-07T01:35:50.831Z,87.77
2018-11-07T01:36:16.985Z,88.25
2018-11-07T01:36:43.115Z,88.25
2018-11-07T01:37:09.257Z,87.96
2018-11-07T01:37:35.413Z,88.06
2018-11-07T01:38:01.545Z,87.96
2018-11-07T01:38:27.680Z,87.87
2018-11-07T01:38:53.810Z,87.77
2018-11-07T01:39:19.966Z,88.15
2018-11-07T01:39:46.143Z,88.25
2018-11-07T01:40:12.294Z,88.15
2018-11-07T01:40:38.451Z,88.15
2018-11-07T01:41:04.587Z,88.15
2018-11-07T01:41:30.720Z,88.15
2018-11-07T01:41:56.951Z,88.15
2018-11-07T01:42:23.073Z,88.73
2018-11-07T01:42:49.252Z,88.15
2018-11-07T01:43:15.385Z,88.54
2018-11-07T01:43:41.515Z,88.54
2018-11-07T01:44:07.650Z,88.15
2018-11-07T01:44:33.807Z,88.34
2018-11-07T01:44:59.956Z,88.15
2018-11-07T01:45:26.113Z,88.63
2018-11-07T01:45:52.245Z,88.25
2018-11-07T01:46:18.442Z,88.25
2018-11-07T01:46:44.577Z,88.4
2018-11-07T01:47:10.716Z,88.97
2018-11-07T01:47:36.844Z,88.87
2018-11-07T01:48:03.003Z,89.06
2018-11-07T01:48:29.136Z,89.25
2018-11-07T01:48:55.280Z,89.06
2018-11-07T01:49:21.403Z,89.06
2018-11-07T01:49:47.534Z,89.25
2018-11-07T01:50:13.693Z,89.16
2018-11-07T01:50:39.843Z,89.73
2018-11-07T01:51:06.021Z,89.64
2018-11-07T01:51:32.140Z,89.64
2018-11-07T01:51:58.287Z,89.64
2018-11-07T01:52:24.422Z,89.73
2018-11-07T01:52:50.557Z,89.83
2018-11-07T01:53:16.686Z,89.73
2018-11-07T01:53:42.822Z,89.54
2018-11-07T01:54:08.973Z,89.83
2018-11-07T01:54:35.112Z,90.02
2018-11-07T01:55:01.241Z,90.02
2018-11-07T01:55:27.421Z,89.73
2018-11-07T01:55:53.556Z,89.83
2018-11-07T01:56:19.687Z,89.92
2018-11-07T01:56:45.823Z,89.73
2018-11-07T01:57:11.956Z,89.83
2018-11-07T01:57:38.111Z,90.02
2018-11-07T01:58:04.265Z,90.31
2018-11-07T01:58:30.415Z,89.73
2018-11-07T01:58:56.571Z,89.54
2018-11-07T01:59:22.730Z,89.73
2018-11-07T01:59:48.892Z,90.02
2018-11-07T02:00:15.022Z,89.73
2018-11-07T02:00:41.149Z,89.92
2018-11-07T02:01:07.289Z,90.02
2018-11-07T02:01:33.421Z,89.83
2018-11-07T02:01:59.668Z,90.02
2018-11-07T02:02:25.804Z,89.54
2018-11-07T02:02:51.936Z,89.49
2018-11-07T02:03:18.070Z,89.68
2018-11-07T02:03:44.193Z,89.59
2018-11-07T02:04:10.375Z,89.78
2018-11-07T02:04:36.551Z,89.49
2018-11-07T02:05:02.686Z,89.59
2018-11-07T02:05:28.813Z,89.49
2018-11-07T02:05:54.974Z,89.83
2018-11-07T02:06:21.105Z,89.83
2018-11-07T02:06:47.237Z,90.02
2018-11-07T02:07:13.393Z,90.45
2018-11-07T02:07:39.528Z,89.68
2018-11-07T02:08:05.661Z,89.78
2018-11-07T02:08:31.798Z,90.16
2018-11-07T02:08:57.926Z,89.64
2018-11-07T02:09:24.057Z,89.35
2018-11-07T02:09:50.212Z,89.87
2018-11-07T02:10:16.340Z,89.87
2018-11-07T02:10:42.497Z,89.78
2018-11-07T02:11:08.630Z,89.87
2018-11-07T02:11:34.758Z,89.87
2018-11-07T02:12:00.891Z,89.87
2018-11-07T02:12:27.025Z,89.87
2018-11-07T02:12:53.152Z,89.39
2018-11-07T02:13:19.287Z,89.59
2018-11-07T02:13:45.419Z,89.78
2018-11-07T02:14:11.577Z,89.87
2018-11-07T02:14:37.732Z,89.87
2018-11-07T02:15:03.886Z,89.87
2018-11-07T02:15:30.018Z,89.87
2018-11-07T02:15:56.174Z,89.49
2018-11-07T02:16:22.310Z,89.59
2018-11-07T02:16:48.480Z,89.59
2018-11-07T02:17:14.617Z,89.97
2018-11-07T02:17:40.761Z,89.87
2018-11-07T02:18:06.895Z,89.97
2018-11-07T02:18:33.053Z,89.97
2018-11-07T02:18:59.215Z,89.59
2018-11-07T02:19:25.359Z,89.68
2018-11-07T02:19:51.497Z,89.87
2018-11-07T02:20:17.626Z,89.87
2018-11-07T02:20:43.760Z,89.78
2018-11-07T02:21:09.899Z,89.87
2018-11-07T02:21:36.026Z,89.87
2018-11-07T02:22:02.151Z,89.87
2018-11-07T02:22:28.285Z,89.97
2018-11-07T02:22:54.418Z,89.68
2018-11-07T02:23:20.560Z,89.59
2018-11-07T02:23:46.693Z,89.68
2018-11-07T02:24:12.852Z,89.68
2018-11-07T02:24:38.980Z,89.49
2018-11-07T02:25:05.117Z,89.59
2018-11-07T02:25:31.248Z,89.87
2018-11-07T02:25:57.375Z,89.39
2018-11-07T02:26:23.661Z,89.39
2018-11-07T02:26:49.705Z,89.83
2018-11-07T02:27:15.830Z,89.39
2018-11-07T02:27:41.980Z,89.68
2018-11-07T02:28:08.142Z,89.87
2018-11-07T02:28:34.273Z,89.49
2018-11-07T02:29:00.429Z,90.06
2018-11-07T02:29:26.588Z,89.54
2018-11-07T02:29:52.719Z,90.45
2018-11-07T02:30:18.874Z,90.16
2018-11-07T02:30:45.037Z,89.92
2018-11-07T02:31:11.209Z,89.78
2018-11-07T02:31:37.344Z,89.59
2018-11-07T02:32:03.472Z,89.68
2018-11-07T02:32:29.607Z,90.16
2018-11-07T02:32:55.738Z,89.59
2018-11-07T02:33:21.893Z,89.87
2018-11-07T02:33:48.027Z,89.97
2018-11-07T02:34:14.158Z,89.87
2018-11-07T02:34:40.294Z,90.06
2018-11-07T02:35:06.477Z,89.68
2018-11-07T02:35:32.604Z,89.68
2018-11-07T02:35:58.766Z,89.87
2018-11-07T02:36:24.913Z,89.78
2018-11-07T02:36:51.109Z,89.68
2018-11-07T02:37:17.176Z,89.87
2018-11-07T02:37:43.332Z,89.68
2018-11-07T02:38:09.483Z,89.64
2018-11-07T02:38:35.642Z,89.83
2018-11-07T02:39:01.807Z,89.59
2018-11-07T02:39:27.978Z,89.54
2018-11-07T02:39:54.112Z,89.45
2018-11-07T02:40:20.245Z,89.87
2018-11-07T02:40:46.400Z,89.97
2018-11-07T02:41:12.577Z,89.49
2018-11-07T02:41:38.745Z,89.59
2018-11-07T02:42:04.911Z,89.64
2018-11-07T02:42:31.061Z,89.92
2018-11-07T02:42:57.222Z,90.35
2018-11-07T02:43:23.352Z,90.16
2018-11-07T02:43:49.485Z,90.31
2018-11-07T02:44:15.650Z,90.02
2018-11-07T02:44:41.808Z,90.11
2018-11-07T02:45:07.947Z,90.21
2018-11-07T02:45:34.075Z,89.87
2018-11-07T02:46:00.201Z,90.35
2018-11-07T02:46:26.330Z,90.35
2018-11-07T02:46:52.490Z,90.31
2018-11-07T02:47:18.618Z,90.45
2018-11-07T02:47:44.764Z,90.06
2018-11-07T02:48:10.892Z,89.68
2018-11-07T02:48:37.027Z,89.97
2018-11-07T02:49:03.163Z,90.06
2018-11-07T02:49:29.299Z,89.87
2018-11-07T02:49:55.426Z,89.68
2018-11-07T02:50:21.599Z,89.3
2018-11-07T02:50:47.764Z,89.49
2018-11-07T02:51:13.932Z,89.87
2018-11-07T02:51:40.107Z,89.87
2018-11-07T02:52:06.264Z,89.39
2018-11-07T02:52:32.396Z,89.78
2018-11-07T02:52:58.552Z,89.68
2018-11-07T02:53:24.702Z,89.78
2018-11-07T02:53:50.808Z,89.73
2018-11-07T02:54:16.983Z,89.78
2018-11-07T02:54:43.136Z,89.59
2018-11-07T02:55:09.293Z,89.45
2018-11-07T02:55:35.423Z,89.92
2018-11-07T02:56:01.580Z,89.92
2018-11-07T02:56:27.730Z,89.64
2018-11-07T02:56:53.870Z,90.21
2018-11-07T02:57:20.036Z,89.78
2018-11-07T02:57:46.184Z,89.54
2018-11-07T02:58:12.323Z,89.92
2018-11-07T02:58:38.474Z,89.35
2018-11-07T02:59:04.630Z,89.83
2018-11-07T02:59:30.784Z,89.83
2018-11-07T02:59:56.915Z,89.83
2018-11-07T03:00:23.093Z,89.83
2018-11-07T03:00:49.258Z,90.31
2018-11-07T03:01:15.473Z,90.21
2018-11-07T03:01:41.578Z,90.02
2018-11-07T03:02:07.730Z,90.31
2018-11-07T03:02:33.918Z,90.5
2018-11-07T03:03:00.103Z,90.5
2018-11-07T03:03:26.234Z,90.5
2018-11-07T03:03:52.392Z,90.59
2018-11-07T03:04:18.552Z,90.78
2018-11-07T03:04:44.701Z,90.78
2018-11-07T03:05:10.858Z,91.26
2018-11-07T03:05:36.989Z,90.88
2018-11-07T03:06:03.143Z,91.07
2018-11-07T03:06:29.302Z,90.88
2018-11-07T03:06:55.445Z,90.59
2018-11-07T03:07:21.595Z,90.59
2018-11-07T03:07:47.727Z,90.78
2018-11-07T03:08:13.882Z,90.78
2018-11-07T03:08:40.020Z,90.78
2018-11-07T03:09:06.153Z,90.88
2018-11-07T03:09:32.313Z,90.69
2018-11-07T03:09:58.507Z,91.07
2018-11-07T03:10:24.698Z,90.78
2018-11-07T03:10:50.818Z,91.16
2018-11-07T03:11:16.989Z,90.88
2018-11-07T03:11:43.124Z,90.78
2018-11-07T03:12:09.255Z,90.88
2018-11-07T03:12:35.431Z,90.97
2018-11-07T03:13:01.612Z,90.88
2018-11-07T03:13:27.767Z,90.59
2018-11-07T03:13:53.921Z,90.11
2018-11-07T03:14:20.083Z,90.21
2018-11-07T03:14:46.229Z,90.5
2018-11-07T03:15:12.395Z,90.69
2018-11-07T03:15:38.554Z,90.5
2018-11-07T03:16:04.688Z,90.21
2018-11-07T03:16:30.820Z,90.88
2018-11-07T03:16:56.974Z,90.5
2018-11-07T03:17:23.130Z,90.78
2018-11-07T03:17:49.260Z,90.78
2018-11-07T03:18:15.398Z,90.5
2018-11-07T03:18:41.550Z,90.59
2018-11-07T03:19:07.683Z,90.59
2018-11-07T03:19:33.864Z,90.88
2018-11-07T03:20:00.017Z,90.78
2018-11-07T03:20:26.147Z,90.78
2018-11-07T03:20:52.336Z,90.88
2018-11-07T03:21:18.470Z,90.97
2018-11-07T03:21:44.602Z,90.88
2018-11-07T03:22:10.766Z,90.59
2018-11-07T03:22:36.900Z,90.59
2018-11-07T03:23:03.034Z,91.26
2018-11-07T03:23:29.186Z,91.16
2018-11-07T03:23:55.322Z,91.64
2018-11-07T03:24:21.494Z,91.45
2018-11-07T03:24:47.633Z,91.45
2018-11-07T03:25:13.770Z,91.26
2018-11-07T03:25:39.926Z,91.45
2018-11-07T03:26:06.059Z,91.55
2018-11-07T03:26:32.184Z,91.74
2018-11-07T03:26:58.320Z,92.02
2018-11-07T03:27:24.455Z,92.21
2018-11-07T03:27:50.590Z,91.83
2018-11-07T03:28:16.790Z,92.02
2018-11-07T03:28:42.920Z,92.12
2018-11-07T03:29:09.060Z,91.78
2018-11-07T03:29:35.194Z,91.88
2018-11-07T03:30:01.345Z,92.12
2018-11-07T03:30:27.520Z,92.12
2018-11-07T03:30:53.747Z,91.88
2018-11-07T03:31:19.926Z,92.31
2018-11-07T03:31:46.081Z,92.26
2018-11-07T03:32:12.255Z,92.26
2018-11-07T03:32:38.417Z,92.07
2018-11-07T03:33:04.574Z,92.17
2018-11-07T03:33:30.734Z,91.93
2018-11-07T03:33:56.873Z,92.07
2018-11-07T03:34:23.024Z,91.88
2018-11-07T03:34:49.153Z,92.07
2018-11-07T03:35:15.344Z,91.88
2018-11-07T03:35:41.472Z,91.98
2018-11-07T03:36:07.607Z,92.12
2018-11-07T03:36:33.785Z,91.98
2018-11-07T03:36:59.921Z,91.83
2018-11-07T03:37:26.079Z,91.69
2018-11-07T03:37:52.210Z,92.12
2018-11-07T03:38:18.339Z,92.17
2018-11-07T03:38:44.472Z,92.07
2018-11-07T03:39:10.633Z,92.36
2018-11-07T03:39:36.805Z,92.36
2018-11-07T03:40:02.939Z,92.36
2018-11-07T03:40:29.079Z,92.74
2018-11-07T03:40:55.219Z,92.65
2018-11-07T03:41:21.372Z,92.21
2018-11-07T03:41:47.538Z,92.5
2018-11-07T03:42:13.692Z,92.07
2018-11-07T03:42:39.828Z,92.36
2018-11-07T03:43:05.955Z,92.41
2018-11-07T03:43:32.160Z,92.07
2018-11-07T03:43:58.290Z,91.78
2018-11-07T03:44:24.417Z,92.07
2018-11-07T03:44:50.576Z,91.93
2018-11-07T03:45:16.712Z,91.88
2018-11-07T03:45:42.871Z,92.21
2018-11-07T03:46:09.034Z,91.93
2018-11-07T03:46:35.160Z,92.21
2018-11-07T03:47:01.334Z,91.74
2018-11-07T03:47:27.461Z,91.64
2018-11-07T03:47:53.641Z,91.26
2018-11-07T03:48:19.774Z,91.45
2018-11-07T03:48:45.907Z,91.83
2018-11-07T03:49:12.065Z,91.83
2018-11-07T03:49:38.222Z,91.16
2018-11-07T03:50:04.353Z,91.26
2018-11-07T03:50:30.491Z,91.55
2018-11-07T03:50:56.652Z,91.69
2018-11-07T03:51:22.818Z,91.5
2018-11-07T03:51:49.009Z,91.74
2018-11-07T03:52:15.163Z,91.64
2018-11-07T03:52:41.314Z,91.16
2018-11-07T03:53:07.470Z,91.64
2018-11-07T03:53:33.623Z,91.83
2018-11-07T03:53:59.751Z,91.31
2018-11-07T03:54:25.916Z,91.83
2018-11-07T03:54:52.083Z,91.83
2018-11-07T03:55:18.224Z,91.36
2018-11-07T03:55:44.365Z,91.55
2018-11-07T03:56:10.508Z,91.36
2018-11-07T03:56:36.633Z,91.55
2018-11-07T03:57:02.774Z,91.45
2018-11-07T03:57:28.898Z,91.45
2018-11-07T03:57:55.032Z,91.64
2018-11-07T03:58:21.169Z,91.36
2018-11-07T03:58:47.297Z,91.36
2018-11-07T03:59:13.430Z,91.36
2018-11-07T03:59:39.563Z,91.07
2018-11-07T04:00:05.725Z,91.16
2018-11-07T04:00:31.876Z,91.45
2018-11-07T04:00:58.079Z,90.78
2018-11-07T04:01:24.194Z,90.78
2018-11-07T04:01:50.343Z,91.36
2018-11-07T04:02:16.481Z,91.26
2018-11-07T04:02:42.616Z,90.78
2018-11-07T04:03:08.747Z,90.97
2018-11-07T04:03:34.901Z,90.78
2018-11-07T04:04:01.079Z,90.97
2018-11-07T04:04:27.282Z,90.88
2018-11-07T04:04:53.438Z,90.69
2018-11-07T04:05:19.565Z,90.88
2018-11-07T04:05:45.746Z,90.88
2018-11-07T04:06:11.886Z,90.78
2018-11-07T04:06:38.073Z,91.26
2018-11-07T04:07:04.198Z,90.78
2018-11-07T04:07:30.337Z,90.88
2018-11-07T04:07:56.469Z,91.16
2018-11-07T04:08:22.674Z,90.97
2018-11-07T04:08:48.807Z,90.88
2018-11-07T04:09:14.987Z,90.69
2018-11-07T04:09:41.117Z,90.78
2018-11-07T04:10:07.259Z,90.97
2018-11-07T04:10:33.418Z,90.88
2018-11-07T04:10:59.576Z,90.78
2018-11-07T04:11:25.723Z,91.26
2018-11-07T04:11:51.861Z,90.97
2018-11-07T04:12:18.006Z,90.88
2018-11-07T04:12:44.155Z,90.88
2018-11-07T04:13:10.296Z,90.69
2018-11-07T04:13:36.449Z,91.45
2018-11-07T04:14:02.577Z,91.36
2018-11-07T04:14:28.721Z,90.83
2018-11-07T04:14:54.870Z,90.93
2018-11-07T04:15:21.004Z,91.31
2018-11-07T04:15:47.129Z,91.21
2018-11-07T04:16:13.297Z,91.78
2018-11-07T04:16:39.453Z,91.5
2018-11-07T04:17:05.582Z,91.78
2018-11-07T04:17:31.758Z,91.5
2018-11-07T04:17:57.890Z,92.26
2018-11-07T04:18:24.012Z,91.98
2018-11-07T04:18:50.146Z,91.78
2018-11-07T04:19:16.280Z,91.31
2018-11-07T04:19:42.408Z,91.21
2018-11-07T04:20:08.565Z,91.41
2018-11-07T04:20:34.712Z,91.6
2018-11-07T04:21:00.896Z,91.02
2018-11-07T04:21:27.064Z,90.93
2018-11-07T04:21:53.215Z,91.31
2018-11-07T04:22:19.345Z,91.21
2018-11-07T04:22:45.499Z,91.41
2018-11-07T04:23:11.640Z,91.12
2018-11-07T04:23:37.815Z,91.21
2018-11-07T04:24:03.971Z,91.31
2018-11-07T04:24:30.092Z,91.31
2018-11-07T04:24:56.231Z,90.93
2018-11-07T04:25:22.366Z,91.12
2018-11-07T04:25:48.497Z,91.21
2018-11-07T04:26:14.652Z,91.21
2018-11-07T04:26:40.807Z,90.93
2018-11-07T04:27:06.961Z,91.12
2018-11-07T04:27:33.089Z,91.31
2018-11-07T04:27:59.248Z,90.73
2018-11-07T04:28:25.400Z,90.73
2018-11-07T04:28:51.529Z,91.5
2018-11-07T04:29:17.713Z,90.93
2018-11-07T04:29:43.844Z,90.93
2018-11-07T04:30:09.989Z,91.21
2018-11-07T04:30:36.147Z,91.21
2018-11-07T04:31:02.289Z,91.21
2018-11-07T04:31:28.421Z,91.21
2018-11-07T04:31:54.583Z,91.41
2018-11-07T04:32:20.714Z,90.83
2018-11-07T04:32:46.860Z,91.21
2018-11-07T04:33:13.011Z,91.41
2018-11-07T04:33:39.181Z,91.41
2018-11-07T04:34:05.345Z,91.5
2018-11-07T04:34:31.473Z,91.5
2018-11-07T04:34:57.614Z,91.6
2018-11-07T04:35:23.743Z,91.41
2018-11-07T04:35:49.880Z,91.78
2018-11-07T04:36:16.046Z,91.98
2018-11-07T04:36:42.183Z,91.98
2018-11-07T04:37:08.321Z,92.07
2018-11-07T04:37:34.443Z,92.07
2018-11-07T04:38:00.603Z,91.88
2018-11-07T04:38:26.740Z,91.88
2018-11-07T04:38:52.898Z,91.88
2018-11-07T04:39:19.230Z,92.55
2018-11-07T04:39:45.265Z,92.83
2018-11-07T04:40:11.392Z,92.26
2018-11-07T04:40:37.519Z,92.65
2018-11-07T04:41:03.648Z,92.36
2018-11-07T04:41:29.783Z,92.46
2018-11-07T04:41:55.926Z,92.74
2018-11-07T04:42:22.077Z,92.07
2018-11-07T04:42:48.262Z,92.26
2018-11-07T04:43:14.439Z,92.17
2018-11-07T04:43:40.568Z,92.26
2018-11-07T04:44:06.699Z,91.88
2018-11-07T04:44:32.829Z,92.55
2018-11-07T04:44:58.984Z,92.17
2018-11-07T04:45:25.118Z,92.83
2018-11-07T04:45:51.271Z,92.93
2018-11-07T04:46:17.432Z,92.65
2018-11-07T04:46:43.561Z,92.83
2018-11-07T04:47:09.724Z,92.65
2018-11-07T04:47:35.856Z,92.65
2018-11-07T04:48:02.020Z,92.65
2018-11-07T04:48:28.152Z,92.65
2018-11-07T04:48:54.306Z,92.46
2018-11-07T04:49:20.453Z,92.65
2018-11-07T04:49:46.586Z,92.46
2018-11-07T04:50:12.724Z,92.46
2018-11-07T04:50:38.897Z,92.65
2018-11-07T04:51:05.036Z,92.74
2018-11-07T04:51:31.202Z,92.46
2018-11-07T04:51:57.382Z,92.26
2018-11-07T04:52:23.505Z,92.55
2018-11-07T04:52:49.639Z,92.46
2018-11-07T04:53:15.798Z,92.55
2018-11-07T04:53:41.952Z,92.46
2018-11-07T04:54:08.122Z,92.55
2018-11-07T04:54:34.240Z,92.46
2018-11-07T04:55:00.368Z,92.65
2018-11-07T04:55:26.555Z,92.46
2018-11-07T04:55:52.691Z,92.65
2018-11-07T04:56:18.826Z,92.26
2018-11-07T04:56:44.956Z,92.65
2018-11-07T04:57:11.098Z,92.74
2018-11-07T04:57:37.245Z,92.65
2018-11-07T04:58:03.382Z,92.83
2018-11-07T04:58:29.509Z,92.65
2018-11-07T04:58:55.643Z,92.46
2018-11-07T04:59:21.773Z,92.83
2018-11-07T04:59:47.913Z,92.65
2018-11-07T05:00:14.100Z,92.46
2018-11-07T05:00:40.243Z,92.55
2018-11-07T05:01:06.371Z,92.55
2018-11-07T05:01:32.505Z,92.26
2018-11-07T05:01:58.633Z,92.26
2018-11-07T05:02:24.794Z,92.17
2018-11-07T05:02:50.939Z,91.69
2018-11-07T05:03:17.068Z,92.07
2018-11-07T05:03:43.202Z,91.88
2018-11-07T05:04:09.333Z,91.69
2018-11-07T05:04:35.488Z,91.78
2018-11-07T05:05:01.637Z,91.12
2018-11-07T05:05:27.795Z,91.31
2018-11-07T05:05:53.925Z,91.41
2018-11-07T05:06:20.053Z,91.41
2018-11-07T05:06:46.212Z,91.02
2018-11-07T05:07:12.374Z,90.83
2018-11-07T05:07:38.505Z,91.12
2018-11-07T05:08:04.680Z,91.02
2018-11-07T05:08:30.848Z,91.21
2018-11-07T05:08:56.966Z,90.83
2018-11-07T05:09:23.103Z,91.5
2018-11-07T05:09:49.269Z,91.21
2018-11-07T05:10:15.426Z,91.21
2018-11-07T05:10:41.551Z,91.21
2018-11-07T05:11:07.693Z,90.45
2018-11-07T05:11:33.826Z,90.83
2018-11-07T05:11:59.963Z,91.6
2018-11-07T05:12:26.091Z,91.31
2018-11-07T05:12:52.247Z,90.73
2018-11-07T05:13:18.379Z,91.31
2018-11-07T05:13:44.516Z,91.31
2018-11-07T05:14:10.647Z,90.64
2018-11-07T05:14:36.800Z,91.31
2018-11-07T05:15:02.935Z,91.31
2018-11-07T05:15:29.064Z,90.93
2018-11-07T05:15:55.210Z,90.93
2018-11-07T05:16:21.354Z,91.5
2018-11-07T05:16:47.527Z,91.5
2018-11-07T05:17:13.706Z,91.31
2018-11-07T05:17:39.835Z,91.21
2018-11-07T05:18:05.992Z,91.21
2018-11-07T05:18:32.121Z,90.83
2018-11-07T05:18:58.253Z,90.93
2018-11-07T05:19:24.384Z,90.93
2018-11-07T05:19:50.575Z,91.5
2018-11-07T05:20:16.692Z,91.31
2018-11-07T05:20:42.849Z,91.12
2018-11-07T05:21:08.986Z,91.21
2018-11-07T05:21:35.111Z,91.5
2018-11-07T05:22:01.266Z,91.6
2018-11-07T05:22:27.394Z,91.12
2018-11-07T05:22:53.522Z,91.41
2018-11-07T05:23:19.660Z,91.5
2018-11-07T05:23:45.819Z,91.5
2018-11-07T05:24:11.952Z,91.12
2018-11-07T05:24:38.091Z,91.69
2018-11-07T05:25:04.218Z,91.5
2018-11-07T05:25:30.347Z,91.78
2018-11-07T05:25:56.579Z,91.5
2018-11-07T05:26:22.673Z,92.07
2018-11-07T05:26:48.772Z,91.6
2018-11-07T05:27:14.916Z,91.78
2018-11-07T05:27:41.060Z,91.78
2018-11-07T05:28:07.225Z,91.41
2018-11-07T05:28:33.355Z,91.41
2018-11-07T05:28:59.487Z,91.5
2018-11-07T05:29:25.636Z,91.69
2018-11-07T05:29:51.795Z,91.41
2018-11-07T05:30:17.927Z,91.69
2018-11-07T05:30:44.057Z,91.6
2018-11-07T05:31:10.193Z,91.5
2018-11-07T05:31:36.328Z,91.5
2018-11-07T05:32:02.532Z,91.31
2018-11-07T05:32:28.649Z,91.41
2018-11-07T05:32:54.813Z,91.5
2018-11-07T05:33:20.948Z,91.78
2018-11-07T05:33:47.087Z,91.6
2018-11-07T05:34:13.211Z,91.5
2018-11-07T05:34:39.346Z,91.5
2018-11-07T05:35:05.478Z,91.21
2018-11-07T05:35:31.632Z,91.21
2018-11-07T05:35:57.793Z,91.5
2018-11-07T05:36:23.952Z,91.31
2018-11-07T05:36:50.112Z,91.31
2018-11-07T05:37:16.268Z,91.31
2018-11-07T05:37:42.399Z,90.73
2018-11-07T05:38:08.535Z,91.21